ASN logo
Last updated: 25 September 2021
Statuts:
Date:lundi 18 mars 2019
Heure:03:12
Type/Sous-type:Silhouette image of generic CL30 model; specific model in this crash may look slightly different
Bombardier BD-100-1A10 Challenger 300
Compagnie:Berjaya Air
Immatriculation: 9M-TST
Numéro de série: 20135
Année de Fabrication: 2006
Equipage:victimes: 0 / à bord:
Passagers:victimes: 0 / à bord:
Total:victimes: 0 / à bord:
Victimes au sol:victimes: 1
Dégats de l'appareil: Substantiels
Lieu de l'accident:Kuala Lumpur-Sultan Abdul Aziz Shah Airport (SZB) (   Malaysie)
Phase de vol: A l'atterrissage (LDG)
Nature:Affaires
Aéroport de départ:Jaipur-Sanganer Airport (JAI/VIJP), Inde
Aéroport de destination:Kuala Lumpur-Sultan Abdul Aziz Shah Airport (SZB/WMSA), Malaysie
Détails:
A Bombardier Challenger 300 corporate jet sustained damage to the left-hand wing after colliding with an airport engineering vehicle after landing on runway 15 at Kuala Lumpur-Sultan Abdul Aziz Shah Airport, Malaysia.
The driver of the vehicle was critically injured and later died in hospital.

Sources:
» New Straits Times

METAR Weather report:
19:00 UTC / 03:00 local time:
WMSA 171900Z VRB03KT 7000 FEW025 BKN270 27/23 Q1011

20:00 UTC / 04:00 local time:
WMSA 172000Z 00000KT 7000 FEW025 BKN280 27/23 Q1011


Photos

photo of Bombardier-BD-100-1A10-Challenger-300-9M-TST
accident date: 18-03-2019
type: Bombardier BD-100-1A10 Challenger 300
registration: 9M-TST
 

Video, social media

Plan
Ce plan montre l'aéroport de départ ainsi que la supposée destination du vol. La ligne fixe reliant les deux aéroports n'est pas le plan de vol exact.
La distance entre Jaipur-Sanganer Airport et Kuala Lumpur-Sultan Abdul Aziz Shah Airport est de 3777 km (2361 miles).
Accident location: Approximate; accuracy within a few kilometers.

Les informations ci-dessus ne représentent pas l'opinion de la 'Flight Safety Foundation' ou de 'Aviation Safety Network' sur les causes de l'accident. Ces informations prélimimaires sont basées sur les faits tel qu'ils sont connus à ce jour.
languages: languages

Share